Terminal Aerodrome Forecast
Issued by NWS

Home | Current Version | Previous Version | Text Only | Print | Product List | Glossary On
Versions: 1 2 3 4 5 6 7 8 9 10 11 12 13 14 15 16 17 18
000
FTUS42 KMLB 091145
TAFISM
TAF
KISM 091145Z 0912/1012 35008KT P6SM VCSH SCT060 OVC110
     FM091600 36012KT P6SM FEW070 BKN130 BKN250
     FM092200 36011KT P6SM BKN150
     FM100500 36008KT P6SM SCT100 SCT250=

USA.gov is the U.S. government's official web portal to all federal, state and local government web resources and services.